createdAt,value
2022-12-14T00:00:07.202Z,80.10
2022-12-14T00:00:16.606Z,80.10
2022-12-14T00:00:26.052Z,80.10
2022-12-14T00:00:35.513Z,80.10
2022-12-14T00:00:44.893Z,80.10
2022-12-14T00:00:54.351Z,80.00
2022-12-14T00:01:03.755Z,80.10
2022-12-14T00:01:13.091Z,80.10
2022-12-14T00:01:22.493Z,80.10
2022-12-14T00:01:41.321Z,80.10
2022-12-14T00:01:50.748Z,80.10
2022-12-14T00:02:00.168Z,80.10
2022-12-14T00:02:09.683Z,80.10
2022-12-14T00:02:19.050Z,80.10
2022-12-14T00:02:28.452Z,80.10
2022-12-14T00:02:37.938Z,80.10
2022-12-14T00:02:47.294Z,80.10
2022-12-14T00:02:56.692Z,80.10
2022-12-14T00:03:06.209Z,79.90
2022-12-14T00:03:15.599Z,80.10
2022-12-14T00:03:24.923Z,80.00
2022-12-14T00:03:34.236Z,80.10
2022-12-14T00:03:43.627Z,80.10
2022-12-14T00:03:53.113Z,80.20
2022-12-14T00:04:11.830Z,80.10
2022-12-14T00:04:21.290Z,80.20
2022-12-14T00:04:30.681Z,80.20
2022-12-14T00:04:40.076Z,80.20
2022-12-14T00:04:49.473Z,80.20
2022-12-14T00:04:58.871Z,80.20
2022-12-14T00:05:08.263Z,80.20
2022-12-14T00:05:17.642Z,80.20
2022-12-14T00:05:27.056Z,80.10
2022-12-14T00:05:36.866Z,80.10
2022-12-14T00:05:46.269Z,80.00
2022-12-14T00:05:55.681Z,79.90
2022-12-14T00:06:05.073Z,79.90
2022-12-14T00:06:14.514Z,79.80
2022-12-14T00:06:23.893Z,79.80
2022-12-14T00:06:33.297Z,79.80
2022-12-14T00:06:42.683Z,79.60
2022-12-14T00:07:01.605Z,79.50
2022-12-14T00:07:11.020Z,79.50
2022-12-14T00:07:20.456Z,79.40
2022-12-14T00:07:29.865Z,79.20
2022-12-14T00:07:39.276Z,79.10
2022-12-14T00:07:48.965Z,78.90
2022-12-14T00:07:58.133Z,78.70
2022-12-14T00:08:07.514Z,78.50
2022-12-14T00:08:16.932Z,78.40
2022-12-14T00:08:26.681Z,78.30
2022-12-14T00:08:41.469Z,78.20
2022-12-14T00:08:45.129Z,78.10
2022-12-14T00:08:54.516Z,77.80
2022-12-14T00:09:03.958Z,77.80
2022-12-14T00:09:13.331Z,77.50
2022-12-14T00:09:22.735Z,77.40
2022-12-14T00:09:41.526Z,77.20
2022-12-14T00:09:50.935Z,76.90
2022-12-14T00:10:00.567Z,77.10
2022-12-14T00:10:09.986Z,77.00
2022-12-14T00:10:19.382Z,76.90
2022-12-14T00:10:28.783Z,76.80
2022-12-14T00:10:38.221Z,76.70
2022-12-14T00:10:47.632Z,76.70
2022-12-14T00:10:57.050Z,76.70
2022-12-14T00:11:06.954Z,76.70
2022-12-14T00:11:16.396Z,76.70
2022-12-14T00:11:25.792Z,76.70
2022-12-14T00:11:35.237Z,76.70
2022-12-14T00:11:44.908Z,76.70
2022-12-14T00:11:54.343Z,76.70
2022-12-14T00:12:03.764Z,76.80
2022-12-14T00:12:13.141Z,76.80
2022-12-14T00:12:22.535Z,76.70
2022-12-14T00:12:41.431Z,76.80
2022-12-14T00:12:50.888Z,76.90
2022-12-14T00:13:00.288Z,76.80
2022-12-14T00:13:09.694Z,75.30
2022-12-14T00:13:19.092Z,77.00
2022-12-14T00:13:28.510Z,76.90
2022-12-14T00:13:37.922Z,76.80
2022-12-14T00:13:49.038Z,76.90
2022-12-14T00:13:56.875Z,76.70
2022-12-14T00:14:06.164Z,77.00
2022-12-14T00:14:15.571Z,77.00
2022-12-14T00:14:24.968Z,77.00
2022-12-14T00:14:34.381Z,77.00
2022-12-14T00:14:43.806Z,77.10
2022-12-14T00:14:53.189Z,77.00
2022-12-14T00:15:02.593Z,77.20
2022-12-14T00:15:21.949Z,77.30
2022-12-14T00:15:31.395Z,77.40
2022-12-14T00:15:40.814Z,77.40
2022-12-14T00:15:50.237Z,77.50
2022-12-14T00:15:59.626Z,77.50
2022-12-14T00:16:09.070Z,77.60
2022-12-14T00:16:18.489Z,77.60
2022-12-14T00:16:27.771Z,77.70
2022-12-14T00:16:37.178Z,77.70
2022-12-14T00:16:46.566Z,77.70
2022-12-14T00:16:55.976Z,77.70
2022-12-14T00:17:05.389Z,77.70
2022-12-14T00:17:14.780Z,77.80
2022-12-14T00:17:24.201Z,77.80
2022-12-14T00:17:33.611Z,77.90
2022-12-14T00:17:43.048Z,77.90
2022-12-14T00:17:52.467Z,78.00
2022-12-14T00:18:11.295Z,78.00
2022-12-14T00:18:22.627Z,78.10
2022-12-14T00:18:30.296Z,78.10
2022-12-14T00:18:39.516Z,78.10
2022-12-14T00:18:48.946Z,78.20
2022-12-14T00:18:58.360Z,78.10
2022-12-14T00:19:07.748Z,78.20
2022-12-14T00:19:17.167Z,78.20
2022-12-14T00:19:26.585Z,78.20
2022-12-14T00:19:35.992Z,78.20
2022-12-14T00:19:45.410Z,78.30
2022-12-14T00:19:54.812Z,78.30
2022-12-14T00:20:04.211Z,78.40
2022-12-14T00:20:13.617Z,78.40
2022-12-14T00:20:23.017Z,78.50
2022-12-14T00:20:41.864Z,78.40
2022-12-14T00:20:51.319Z,78.60
2022-12-14T00:21:00.723Z,78.50
2022-12-14T00:21:10.100Z,78.60
2022-12-14T00:21:19.491Z,78.60
2022-12-14T00:21:28.859Z,78.60
2022-12-14T00:21:38.271Z,78.60
2022-12-14T00:21:47.702Z,78.70
2022-12-14T00:21:57.098Z,78.70
2022-12-14T00:22:06.720Z,78.70
2022-12-14T00:22:16.133Z,78.70
2022-12-14T00:22:25.531Z,78.80
2022-12-14T00:22:34.932Z,78.80
2022-12-14T00:22:44.319Z,78.70
2022-12-14T00:22:53.730Z,78.90
2022-12-14T00:23:03.135Z,78.80
2022-12-14T00:23:12.527Z,78.90
2022-12-14T00:23:37.187Z,78.90
2022-12-14T00:23:40.819Z,79.00
2022-12-14T00:23:50.241Z,79.10
2022-12-14T00:23:59.633Z,79.00
2022-12-14T00:24:09.054Z,79.10
2022-12-14T00:24:18.427Z,79.10
2022-12-14T00:24:27.839Z,79.10
2022-12-14T00:24:37.250Z,79.10
2022-12-14T00:24:46.636Z,79.10
2022-12-14T00:24:56.030Z,79.10
2022-12-14T00:25:05.407Z,79.20
2022-12-14T00:25:14.802Z,79.10
2022-12-14T00:25:24.200Z,79.30
2022-12-14T00:25:33.601Z,79.30
2022-12-14T00:25:43.028Z,79.30
2022-12-14T00:25:52.452Z,79.40
2022-12-14T00:26:11.222Z,79.30
2022-12-14T00:26:20.618Z,79.50
2022-12-14T00:26:30.004Z,79.30
2022-12-14T00:26:39.418Z,79.40
2022-12-14T00:26:48.814Z,79.50
2022-12-14T00:26:58.223Z,79.50
2022-12-14T00:27:07.624Z,79.60
2022-12-14T00:27:17.047Z,79.50
2022-12-14T00:27:26.447Z,79.70
2022-12-14T00:27:35.864Z,79.70
2022-12-14T00:27:45.274Z,79.80
2022-12-14T00:27:54.674Z,79.70
2022-12-14T00:28:04.076Z,79.80
2022-12-14T00:28:13.483Z,79.90
2022-12-14T00:28:22.873Z,79.90
2022-12-14T00:28:41.660Z,80.00
2022-12-14T00:28:51.051Z,80.00
2022-12-14T00:29:00.447Z,80.00
2022-12-14T00:29:09.840Z,80.10
2022-12-14T00:29:19.250Z,80.10
2022-12-14T00:29:28.660Z,80.10
2022-12-14T00:29:38.076Z,80.20
2022-12-14T00:29:47.479Z,80.10
2022-12-14T00:29:56.912Z,80.20
2022-12-14T00:30:06.342Z,80.20
2022-12-14T00:30:15.740Z,80.30
2022-12-14T00:30:25.142Z,80.30
2022-12-14T00:30:34.545Z,80.30
2022-12-14T00:30:44.031Z,80.40
2022-12-14T00:30:58.154Z,80.40
2022-12-14T00:31:02.868Z,80.40
2022-12-14T00:31:21.663Z,80.50
2022-12-14T00:31:31.215Z,80.50
2022-12-14T00:31:40.557Z,80.60
2022-12-14T00:31:49.943Z,80.50
2022-12-14T00:31:59.275Z,80.50
2022-12-14T00:32:08.697Z,80.60
2022-12-14T00:32:18.104Z,80.60
2022-12-14T00:32:27.507Z,80.60
2022-12-14T00:32:36.961Z,80.70
2022-12-14T00:32:46.356Z,80.80
2022-12-14T00:32:55.744Z,80.80
2022-12-14T00:33:05.145Z,80.80
2022-12-14T00:33:14.542Z,80.80
2022-12-14T00:33:23.941Z,80.90
2022-12-14T00:33:33.335Z,80.90
2022-12-14T00:33:42.740Z,81.00
2022-12-14T00:34:01.732Z,81.00
2022-12-14T00:34:11.025Z,81.00
2022-12-14T00:34:20.435Z,81.10
2022-12-14T00:34:29.851Z,81.10
2022-12-14T00:34:39.263Z,81.10
2022-12-14T00:34:48.666Z,81.10
2022-12-14T00:34:58.079Z,81.10
2022-12-14T00:35:07.545Z,81.10
2022-12-14T00:35:17.119Z,81.10
2022-12-14T00:35:26.555Z,81.10
2022-12-14T00:35:35.955Z,81.20
2022-12-14T00:35:45.406Z,81.20
2022-12-14T00:35:54.807Z,81.20
2022-12-14T00:36:04.221Z,81.30
2022-12-14T00:36:13.621Z,81.20
2022-12-14T00:36:23.024Z,81.10
2022-12-14T00:36:41.802Z,81.30
2022-12-14T00:36:51.194Z,81.20
2022-12-14T00:37:00.600Z,81.30
2022-12-14T00:37:10.005Z,81.30
2022-12-14T00:37:19.424Z,81.40
2022-12-14T00:37:28.854Z,81.40
2022-12-14T00:37:38.272Z,81.40
2022-12-14T00:37:48.870Z,81.40
2022-12-14T00:37:57.052Z,81.40
2022-12-14T00:38:06.490Z,81.50
2022-12-14T00:38:15.868Z,81.50
2022-12-14T00:38:25.502Z,81.50
2022-12-14T00:38:34.630Z,81.50
2022-12-14T00:38:44.019Z,81.50
2022-12-14T00:38:53.430Z,81.60
2022-12-14T00:39:02.840Z,81.50
2022-12-14T00:39:21.605Z,81.60
2022-12-14T00:39:31.000Z,81.50
2022-12-14T00:39:40.386Z,81.60
2022-12-14T00:39:49.779Z,81.50
2022-12-14T00:39:59.177Z,81.40
2022-12-14T00:40:08.576Z,81.50
2022-12-14T00:40:17.966Z,81.60
2022-12-14T00:40:27.339Z,81.60
2022-12-14T00:40:36.735Z,81.60
2022-12-14T00:40:46.147Z,81.60
2022-12-14T00:40:55.583Z,81.70
2022-12-14T00:41:04.977Z,81.70
2022-12-14T00:41:14.376Z,81.80
2022-12-14T00:41:23.800Z,81.80
2022-12-14T00:41:33.183Z,81.80
2022-12-14T00:41:42.582Z,81.80
2022-12-14T00:42:01.416Z,81.90
2022-12-14T00:42:10.814Z,81.90
2022-12-14T00:42:20.216Z,81.90
2022-12-14T00:42:29.615Z,81.90
2022-12-14T00:42:39.015Z,81.80
2022-12-14T00:42:48.435Z,81.80
2022-12-14T00:42:57.816Z,81.80
2022-12-14T00:43:07.227Z,81.70
2022-12-14T00:43:16.614Z,81.70
2022-12-14T00:43:26.015Z,81.60
2022-12-14T00:43:35.411Z,81.60
2022-12-14T00:43:44.796Z,81.60
2022-12-14T00:43:54.194Z,81.50
2022-12-14T00:44:03.587Z,81.40
2022-12-14T00:44:12.977Z,81.40
2022-12-14T00:44:31.791Z,81.20
2022-12-14T00:44:41.180Z,81.10
2022-12-14T00:44:50.794Z,80.90
2022-12-14T00:45:00.187Z,80.90
2022-12-14T00:45:09.605Z,80.90
2022-12-14T00:45:19.033Z,80.90
2022-12-14T00:45:28.421Z,80.70
2022-12-14T00:45:37.805Z,80.60
2022-12-14T00:45:47.233Z,80.40
2022-12-14T00:45:56.787Z,80.20
2022-12-14T00:46:06.084Z,80.10
2022-12-14T00:46:15.475Z,79.90
2022-12-14T00:46:24.875Z,79.80
2022-12-14T00:46:34.216Z,79.70
2022-12-14T00:46:43.575Z,79.50
2022-12-14T00:46:53.042Z,79.40
2022-12-14T00:47:11.679Z,79.20
2022-12-14T00:47:21.116Z,79.10
2022-12-14T00:47:30.497Z,78.90
2022-12-14T00:47:40.971Z,78.70
2022-12-14T00:47:49.288Z,78.60
2022-12-14T00:47:58.670Z,78.50
2022-12-14T00:48:08.122Z,78.40
2022-12-14T00:48:17.513Z,78.40
2022-12-14T00:48:27.432Z,78.30
2022-12-14T00:48:36.321Z,78.30
2022-12-14T00:48:45.712Z,78.10
2022-12-14T00:48:55.169Z,78.00
2022-12-14T00:49:04.578Z,77.90
2022-12-14T00:49:14.004Z,77.90
2022-12-14T00:49:23.407Z,77.80
2022-12-14T00:49:32.814Z,77.70
2022-12-14T00:49:51.595Z,77.50
2022-12-14T00:50:00.973Z,77.40
2022-12-14T00:50:10.381Z,77.40
2022-12-14T00:50:19.784Z,77.20
2022-12-14T00:50:29.188Z,77.10
2022-12-14T00:50:38.594Z,76.90
2022-12-14T00:50:48.788Z,76.90
2022-12-14T00:50:57.409Z,76.80
2022-12-14T00:51:06.792Z,76.70
2022-12-14T00:51:16.177Z,76.60
2022-12-14T00:51:25.573Z,76.40
2022-12-14T00:51:34.964Z,76.40
2022-12-14T00:51:44.359Z,76.20
2022-12-14T00:51:53.760Z,76.20
2022-12-14T00:52:03.167Z,76.10
2022-12-14T00:52:12.557Z,76.10
2022-12-14T00:52:31.366Z,75.90
2022-12-14T00:52:40.811Z,75.90
2022-12-14T00:52:50.250Z,75.80
2022-12-14T00:52:59.645Z,75.70
2022-12-14T00:53:09.071Z,75.60
2022-12-14T00:53:18.456Z,75.60
2022-12-14T00:53:27.869Z,75.60
2022-12-14T00:53:37.246Z,75.60
2022-12-14T00:53:46.632Z,75.50
2022-12-14T00:53:56.011Z,75.40
2022-12-14T00:54:05.385Z,75.40
2022-12-14T00:54:14.816Z,75.20
2022-12-14T00:54:24.184Z,75.20
2022-12-14T00:54:33.578Z,75.20
2022-12-14T00:54:42.973Z,75.10
2022-12-14T00:55:01.798Z,75.00
2022-12-14T00:55:11.196Z,74.90
2022-12-14T00:55:20.597Z,74.90
2022-12-14T00:55:29.964Z,74.90
2022-12-14T00:55:39.380Z,74.80
2022-12-14T00:55:49.544Z,74.70
2022-12-14T00:55:58.380Z,74.70
2022-12-14T00:56:07.773Z,74.70
2022-12-14T00:56:17.165Z,74.70
2022-12-14T00:56:26.552Z,74.70
2022-12-14T00:56:35.949Z,74.60
2022-12-14T00:56:45.351Z,74.60
2022-12-14T00:56:54.743Z,74.50
2022-12-14T00:57:04.161Z,74.50
2022-12-14T00:57:13.555Z,74.50
2022-12-14T00:57:22.988Z,74.50
2022-12-14T00:57:41.809Z,74.70
2022-12-14T00:57:51.308Z,74.70
2022-12-14T00:58:00.708Z,74.60
2022-12-14T00:58:10.105Z,74.70
2022-12-14T00:58:19.505Z,74.70
2022-12-14T00:58:29.408Z,74.70
2022-12-14T00:58:38.271Z,74.70
2022-12-14T00:58:47.686Z,74.60
2022-12-14T00:58:57.082Z,74.50
2022-12-14T00:59:06.468Z,74.40
2022-12-14T00:59:15.868Z,74.40
2022-12-14T00:59:27.329Z,74.30
2022-12-14T00:59:34.652Z,74.20
2022-12-14T00:59:44.066Z,74.10
2022-12-14T00:59:53.463Z,74.10
2022-12-14T01:00:02.869Z,74.00
2022-12-14T01:00:21.666Z,74.00
2022-12-14T01:00:31.049Z,74.00
2022-12-14T01:00:40.445Z,74.00
2022-12-14T01:00:49.859Z,74.00
2022-12-14T01:00:59.261Z,73.90
2022-12-14T01:01:08.776Z,73.80
2022-12-14T01:01:18.185Z,73.80
2022-12-14T01:01:27.545Z,73.80
2022-12-14T01:01:36.980Z,73.70
2022-12-14T01:01:46.327Z,73.70
2022-12-14T01:01:55.744Z,73.70
2022-12-14T01:02:05.124Z,73.70
2022-12-14T01:02:14.657Z,73.80
2022-12-14T01:02:24.034Z,73.80
2022-12-14T01:02:33.309Z,73.80
2022-12-14T01:02:42.604Z,73.90
2022-12-14T01:03:01.408Z,73.90
2022-12-14T01:03:10.846Z,73.90
2022-12-14T01:03:20.258Z,73.90
2022-12-14T01:03:30.266Z,74.00
2022-12-14T01:03:39.017Z,73.90
2022-12-14T01:03:48.465Z,73.90
2022-12-14T01:03:57.831Z,73.90
2022-12-14T01:04:07.218Z,73.90
2022-12-14T01:04:16.602Z,73.90
2022-12-14T01:04:25.925Z,73.90
2022-12-14T01:04:35.338Z,74.00
2022-12-14T01:04:44.716Z,73.90
2022-12-14T01:04:54.111Z,73.90
2022-12-14T01:05:03.515Z,73.90
2022-12-14T01:05:12.914Z,74.00
2022-12-14T01:05:31.806Z,74.00
2022-12-14T01:05:41.238Z,74.00
2022-12-14T01:05:50.654Z,74.00
2022-12-14T01:06:00.069Z,74.00
2022-12-14T01:06:09.445Z,73.90
2022-12-14T01:06:18.827Z,73.90
2022-12-14T01:06:28.291Z,73.80
2022-12-14T01:06:37.707Z,73.80
2022-12-14T01:06:47.098Z,73.70
2022-12-14T01:06:56.485Z,73.70
2022-12-14T01:07:05.887Z,73.70
2022-12-14T01:07:15.268Z,73.70
2022-12-14T01:07:24.642Z,73.70
2022-12-14T01:07:34.037Z,73.80
2022-12-14T01:07:43.449Z,73.80
2022-12-14T01:07:52.856Z,73.90
2022-12-14T01:08:11.715Z,73.80
2022-12-14T01:08:21.108Z,73.80
2022-12-14T01:08:30.487Z,73.80
2022-12-14T01:08:39.883Z,73.90
2022-12-14T01:08:49.275Z,73.70
2022-12-14T01:08:58.662Z,73.70
2022-12-14T01:09:08.059Z,73.70
2022-12-14T01:09:17.449Z,73.70
2022-12-14T01:09:26.820Z,73.70
2022-12-14T01:09:36.216Z,73.70
2022-12-14T01:09:45.591Z,73.60
2022-12-14T01:09:55.002Z,73.60
2022-12-14T01:10:04.388Z,73.60
2022-12-14T01:10:13.783Z,73.50
2022-12-14T01:10:23.175Z,73.40
2022-12-14T01:10:32.603Z,73.40
2022-12-14T01:10:51.502Z,73.40
2022-12-14T01:11:00.889Z,73.40
2022-12-14T01:11:10.271Z,73.30
2022-12-14T01:11:19.659Z,73.40
2022-12-14T01:11:29.067Z,73.40
2022-12-14T01:11:38.445Z,73.40
2022-12-14T01:11:47.822Z,73.40
2022-12-14T01:11:57.228Z,73.40
2022-12-14T01:12:06.674Z,73.40
2022-12-14T01:12:16.060Z,73.40
2022-12-14T01:12:25.448Z,73.40
2022-12-14T01:12:34.855Z,73.50
2022-12-14T01:12:44.264Z,73.50
2022-12-14T01:12:53.654Z,73.50
2022-12-14T01:13:03.045Z,73.60
2022-12-14T01:13:21.828Z,73.50
2022-12-14T01:13:31.208Z,73.50
2022-12-14T01:13:40.601Z,73.50
2022-12-14T01:13:50.006Z,73.50
2022-12-14T01:13:59.452Z,73.50
2022-12-14T01:14:08.849Z,73.50
2022-12-14T01:14:18.246Z,73.50
2022-12-14T01:14:27.630Z,73.50
2022-12-14T01:14:37.027Z,73.40
2022-12-14T01:14:46.443Z,73.50
2022-12-14T01:14:55.822Z,73.50
2022-12-14T01:15:05.229Z,73.50
2022-12-14T01:15:14.607Z,73.50
2022-12-14T01:15:24.016Z,73.40
2022-12-14T01:15:33.396Z,73.50
2022-12-14T01:15:42.816Z,73.30
2022-12-14T01:16:01.670Z,73.40
2022-12-14T01:16:11.151Z,73.50
2022-12-14T01:16:20.475Z,73.50
2022-12-14T01:16:29.931Z,73.40
2022-12-14T01:16:39.254Z,73.50
2022-12-14T01:16:48.651Z,73.50
2022-12-14T01:16:58.051Z,73.50
2022-12-14T01:17:07.433Z,73.50
2022-12-14T01:17:16.824Z,73.50
2022-12-14T01:17:26.222Z,73.60
2022-12-14T01:17:35.664Z,73.60
2022-12-14T01:17:45.061Z,73.60
2022-12-14T01:17:54.459Z,73.60
2022-12-14T01:18:03.875Z,73.60
2022-12-14T01:18:13.271Z,73.70
2022-12-14T01:18:22.669Z,73.60
2022-12-14T01:18:41.478Z,73.70
2022-12-14T01:18:50.882Z,73.70
2022-12-14T01:19:00.282Z,73.80
2022-12-14T01:19:09.664Z,73.80
2022-12-14T01:19:19.074Z,73.70
2022-12-14T01:19:28.464Z,73.70
2022-12-14T01:19:37.868Z,73.80
2022-12-14T01:19:49.325Z,73.90
2022-12-14T01:19:56.695Z,73.90
2022-12-14T01:20:06.088Z,73.90
2022-12-14T01:20:15.488Z,73.90
2022-12-14T01:20:24.865Z,73.90
2022-12-14T01:20:34.247Z,73.90
2022-12-14T01:20:43.646Z,73.90
2022-12-14T01:20:53.066Z,73.90
2022-12-14T01:21:02.485Z,73.90
2022-12-14T01:21:21.344Z,74.00
2022-12-14T01:21:30.767Z,74.00
2022-12-14T01:21:40.150Z,74.00
2022-12-14T01:21:49.551Z,74.00
2022-12-14T01:21:58.974Z,74.00
2022-12-14T01:22:08.384Z,74.10
2022-12-14T01:22:17.852Z,74.10
2022-12-14T01:22:27.274Z,74.10
2022-12-14T01:22:36.671Z,74.20
2022-12-14T01:22:46.065Z,74.20
2022-12-14T01:22:55.473Z,74.10
2022-12-14T01:23:04.876Z,74.10
2022-12-14T01:23:14.280Z,74.10
2022-12-14T01:23:24.139Z,74.10
2022-12-14T01:23:33.091Z,74.00
2022-12-14T01:23:42.509Z,74.00
2022-12-14T01:24:01.320Z,74.00
2022-12-14T01:24:10.758Z,74.00
2022-12-14T01:24:20.206Z,74.00
2022-12-14T01:24:29.584Z,74.00
2022-12-14T01:24:39.002Z,73.90
2022-12-14T01:24:48.439Z,74.00
2022-12-14T01:24:57.832Z,74.00
2022-12-14T01:25:07.227Z,74.00
2022-12-14T01:25:16.626Z,74.00
2022-12-14T01:25:26.069Z,74.10
2022-12-14T01:25:35.434Z,74.10
2022-12-14T01:25:44.869Z,74.10
2022-12-14T01:25:54.593Z,74.10
2022-12-14T01:26:03.983Z,74.10
2022-12-14T01:26:13.451Z,74.10
2022-12-14T01:26:22.834Z,74.10
2022-12-14T01:26:41.644Z,74.10
2022-12-14T01:26:51.065Z,74.10
2022-12-14T01:27:00.452Z,74.00
2022-12-14T01:27:09.830Z,74.00
2022-12-14T01:27:19.307Z,74.00
2022-12-14T01:27:28.712Z,74.00
2022-12-14T01:27:38.133Z,74.00
2022-12-14T01:27:47.544Z,74.00
2022-12-14T01:27:56.963Z,74.00
2022-12-14T01:28:06.368Z,74.00
2022-12-14T01:28:15.779Z,74.00
2022-12-14T01:28:25.180Z,74.00
2022-12-14T01:28:34.583Z,73.90
2022-12-14T01:28:43.989Z,73.90
2022-12-14T01:28:53.407Z,73.90
2022-12-14T01:29:02.797Z,74.00
2022-12-14T01:29:21.654Z,73.90
2022-12-14T01:29:31.078Z,73.90
2022-12-14T01:29:40.490Z,73.90
2022-12-14T01:29:49.897Z,73.90
2022-12-14T01:29:59.302Z,73.90
2022-12-14T01:30:08.702Z,73.90
2022-12-14T01:30:18.127Z,73.90
2022-12-14T01:30:27.538Z,73.90
2022-12-14T01:30:36.954Z,73.80
2022-12-14T01:30:46.375Z,73.90
2022-12-14T01:30:55.860Z,73.90
2022-12-14T01:31:05.276Z,73.80
2022-12-14T01:31:14.762Z,73.70
2022-12-14T01:31:24.118Z,73.70
2022-12-14T01:31:33.589Z,73.60
2022-12-14T01:31:43.014Z,73.60
2022-12-14T01:32:01.813Z,73.50
2022-12-14T01:32:11.237Z,73.60
2022-12-14T01:32:20.658Z,73.70
2022-12-14T01:32:30.146Z,73.60
2022-12-14T01:32:39.572Z,73.70
2022-12-14T01:32:49.020Z,73.60
2022-12-14T01:32:58.451Z,73.70
2022-12-14T01:33:07.868Z,73.70
2022-12-14T01:33:17.294Z,73.60
2022-12-14T01:33:26.998Z,73.70
2022-12-14T01:33:36.132Z,73.70
2022-12-14T01:33:45.547Z,73.70
2022-12-14T01:33:54.948Z,73.70
2022-12-14T01:34:04.388Z,73.80
2022-12-14T01:34:13.799Z,73.90
2022-12-14T01:34:23.214Z,73.90
2022-12-14T01:34:32.618Z,74.00
2022-12-14T01:34:51.495Z,74.00
2022-12-14T01:35:00.905Z,74.10
2022-12-14T01:35:10.324Z,74.20
2022-12-14T01:35:19.804Z,74.30
2022-12-14T01:35:29.211Z,74.30
2022-12-14T01:35:38.716Z,74.40
2022-12-14T01:35:48.131Z,74.50
2022-12-14T01:35:57.594Z,74.50
2022-12-14T01:36:07.005Z,74.60
2022-12-14T01:36:16.400Z,74.70
2022-12-14T01:36:25.809Z,74.80
2022-12-14T01:36:35.232Z,74.90
2022-12-14T01:36:44.636Z,74.90
2022-12-14T01:36:54.051Z,75.00
2022-12-14T01:37:03.460Z,75.10
2022-12-14T01:37:12.851Z,75.10
2022-12-14T01:37:31.683Z,75.30
2022-12-14T01:37:41.119Z,75.50
2022-12-14T01:37:50.523Z,75.60
2022-12-14T01:37:59.987Z,75.60
2022-12-14T01:38:09.380Z,75.60
2022-12-14T01:38:18.788Z,75.80
2022-12-14T01:38:28.208Z,75.90
2022-12-14T01:38:37.638Z,76.00
2022-12-14T01:38:47.053Z,76.10
2022-12-14T01:38:56.466Z,76.20
2022-12-14T01:39:05.852Z,76.20
2022-12-14T01:39:15.306Z,76.30
2022-12-14T01:39:24.723Z,76.50
2022-12-14T01:39:34.105Z,76.60
2022-12-14T01:39:43.508Z,76.70
2022-12-14T01:39:52.897Z,76.80
2022-12-14T01:40:11.699Z,77.10
2022-12-14T01:40:21.083Z,77.20
2022-12-14T01:40:30.469Z,77.30
2022-12-14T01:40:39.871Z,77.30
2022-12-14T01:40:49.261Z,77.50
2022-12-14T01:40:58.672Z,77.70
2022-12-14T01:41:08.078Z,77.80
2022-12-14T01:41:17.484Z,77.90
2022-12-14T01:41:26.882Z,77.90
2022-12-14T01:41:36.282Z,77.90
2022-12-14T01:41:45.678Z,78.00
2022-12-14T01:41:55.085Z,78.00
2022-12-14T01:42:04.483Z,78.00
2022-12-14T01:42:13.870Z,78.10
2022-12-14T01:42:23.264Z,78.10
2022-12-14T01:42:32.666Z,78.10
2022-12-14T01:42:51.464Z,78.10
2022-12-14T01:43:00.848Z,78.10
2022-12-14T01:43:10.223Z,78.10
2022-12-14T01:43:19.694Z,78.20
2022-12-14T01:43:29.590Z,78.10
2022-12-14T01:43:38.454Z,78.10
2022-12-14T01:43:48.899Z,78.10
2022-12-14T01:43:57.274Z,78.10
2022-12-14T01:44:06.673Z,78.10
2022-12-14T01:44:16.065Z,78.00
2022-12-14T01:44:25.444Z,78.00
2022-12-14T01:44:34.849Z,78.00
2022-12-14T01:44:44.253Z,77.90
2022-12-14T01:44:53.655Z,77.80
2022-12-14T01:45:03.062Z,77.80
2022-12-14T01:45:12.454Z,77.70
2022-12-14T01:45:31.283Z,77.50
2022-12-14T01:45:40.685Z,77.50
2022-12-14T01:45:50.099Z,77.40
2022-12-14T01:45:59.496Z,77.30
2022-12-14T01:46:08.946Z,77.30
2022-12-14T01:46:18.341Z,77.20
2022-12-14T01:46:27.713Z,77.20
2022-12-14T01:46:37.131Z,77.00
2022-12-14T01:46:46.544Z,77.00
2022-12-14T01:46:55.976Z,76.90
2022-12-14T01:47:12.175Z,76.90
2022-12-14T01:47:14.711Z,76.80
2022-12-14T01:47:24.142Z,76.70
2022-12-14T01:47:33.563Z,76.70
2022-12-14T01:47:42.973Z,76.60
2022-12-14T01:48:01.749Z,76.60
2022-12-14T01:48:11.357Z,76.40
2022-12-14T01:48:20.843Z,76.40
2022-12-14T01:48:30.365Z,76.40
2022-12-14T01:48:39.790Z,76.40
2022-12-14T01:48:49.249Z,76.40
2022-12-14T01:48:58.680Z,76.40
2022-12-14T01:49:08.120Z,76.40
2022-12-14T01:49:17.532Z,76.30
2022-12-14T01:49:26.924Z,76.40
2022-12-14T01:49:36.356Z,76.30
2022-12-14T01:49:45.764Z,76.30
2022-12-14T01:49:55.175Z,76.30
2022-12-14T01:50:04.566Z,76.20
2022-12-14T01:50:13.951Z,76.20
2022-12-14T01:50:23.339Z,76.20
2022-12-14T01:50:32.729Z,76.20
2022-12-14T01:50:51.522Z,76.20
2022-12-14T01:51:00.924Z,76.10
2022-12-14T01:51:10.325Z,76.10
2022-12-14T01:51:19.720Z,76.00
2022-12-14T01:51:29.126Z,76.00
2022-12-14T01:51:38.513Z,76.00
2022-12-14T01:51:47.934Z,75.90
2022-12-14T01:51:57.383Z,75.90
2022-12-14T01:52:06.769Z,75.90
2022-12-14T01:52:16.154Z,75.80
2022-12-14T01:52:25.565Z,75.80
2022-12-14T01:52:34.955Z,75.80
2022-12-14T01:52:44.354Z,75.90
2022-12-14T01:52:53.744Z,75.90
2022-12-14T01:53:03.163Z,75.90
2022-12-14T01:53:12.549Z,75.90
2022-12-14T01:53:31.354Z,75.70
2022-12-14T01:53:40.751Z,75.70
2022-12-14T01:53:50.155Z,75.70
2022-12-14T01:53:59.590Z,75.60
2022-12-14T01:54:08.991Z,75.60
2022-12-14T01:54:18.412Z,75.60
2022-12-14T01:54:27.871Z,75.60
2022-12-14T01:54:37.257Z,75.60
2022-12-14T01:54:48.846Z,75.50
2022-12-14T01:54:56.040Z,75.40
2022-12-14T01:55:05.417Z,75.40
2022-12-14T01:55:14.803Z,75.40
2022-12-14T01:55:24.192Z,75.40
2022-12-14T01:55:33.585Z,75.40
2022-12-14T01:55:42.967Z,75.40
2022-12-14T01:56:01.772Z,75.30
2022-12-14T01:56:11.197Z,75.30
2022-12-14T01:56:20.587Z,75.30
2022-12-14T01:56:29.997Z,75.30
2022-12-14T01:56:39.388Z,75.30
2022-12-14T01:56:48.802Z,75.20
2022-12-14T01:56:58.190Z,75.20
2022-12-14T01:57:07.597Z,75.10
2022-12-14T01:57:16.981Z,75.20
2022-12-14T01:57:26.367Z,75.10
2022-12-14T01:57:35.812Z,75.10
2022-12-14T01:57:45.187Z,75.20
2022-12-14T01:57:54.615Z,75.10
2022-12-14T01:58:04.024Z,75.10
2022-12-14T01:58:13.406Z,75.00
2022-12-14T01:58:22.783Z,75.00
2022-12-14T01:58:41.525Z,75.00
2022-12-14T01:58:50.965Z,74.80
2022-12-14T01:59:00.353Z,74.90
2022-12-14T01:59:09.751Z,74.80
2022-12-14T01:59:19.163Z,74.80
2022-12-14T01:59:28.545Z,74.70
2022-12-14T01:59:37.918Z,74.50
2022-12-14T01:59:47.326Z,74.50
2022-12-14T01:59:57.597Z,74.50
2022-12-14T02:00:07.622Z,74.50
2022-12-14T02:00:15.515Z,74.40
2022-12-14T02:00:24.909Z,74.40
2022-12-14T02:00:34.316Z,74.40
2022-12-14T02:00:43.688Z,74.30
2022-12-14T02:00:53.067Z,74.40
2022-12-14T02:01:02.471Z,74.40
2022-12-14T02:01:21.466Z,74.40
2022-12-14T02:01:30.832Z,74.40
2022-12-14T02:01:40.241Z,74.50
2022-12-14T02:01:49.634Z,74.50
2022-12-14T02:01:59.036Z,74.50
2022-12-14T02:02:08.406Z,74.40
2022-12-14T02:02:17.838Z,74.40
2022-12-14T02:02:27.271Z,74.40
2022-12-14T02:02:36.713Z,74.30
2022-12-14T02:02:46.032Z,74.30
2022-12-14T02:02:55.452Z,74.20
2022-12-14T02:03:04.768Z,74.20
2022-12-14T02:03:14.270Z,74.10
2022-12-14T02:03:23.620Z,74.10
2022-12-14T02:03:33.373Z,74.10
2022-12-14T02:03:51.817Z,74.00
2022-12-14T02:04:01.221Z,73.90
2022-12-14T02:04:10.619Z,73.90
2022-12-14T02:04:20.021Z,73.90
2022-12-14T02:04:29.433Z,73.90
2022-12-14T02:04:38.819Z,73.90
2022-12-14T02:04:48.220Z,73.80
2022-12-14T02:04:57.696Z,73.80
2022-12-14T02:05:07.160Z,73.80
2022-12-14T02:05:16.548Z,73.70
2022-12-14T02:05:25.941Z,73.60
2022-12-14T02:05:35.344Z,73.50
2022-12-14T02:05:44.730Z,73.50
2022-12-14T02:05:54.142Z,73.40
2022-12-14T02:06:03.575Z,73.30
2022-12-14T02:06:12.968Z,73.40
2022-12-14T02:06:31.761Z,73.30
2022-12-14T02:06:41.145Z,73.30
2022-12-14T02:06:50.521Z,73.30
2022-12-14T02:07:01.380Z,73.40
2022-12-14T02:07:09.289Z,73.40
2022-12-14T02:07:18.681Z,73.40
2022-12-14T02:07:28.071Z,73.30
2022-12-14T02:07:37.466Z,73.40
2022-12-14T02:07:48.955Z,73.40
2022-12-14T02:07:56.256Z,73.30
2022-12-14T02:08:05.677Z,73.30
2022-12-14T02:08:15.068Z,73.30
2022-12-14T02:08:24.450Z,73.20
2022-12-14T02:08:33.929Z,73.10
2022-12-14T02:08:43.303Z,73.10